Latest Weather Observations for McCluer Island

IDD60801

Issued at 8:11 pm CST Saturday 25 January 2020 (issued every 10 minutes, with the page automatically refreshed every 10 minutes)

About weather observations | Map of weather stations | Latest weather observations for NT | Other Formats
Station Details ID: 014274 Name: MCCLUER ISLAND Lat: -11.05 Lon: 132.98 Height: 1.4 m
Data from the previous 72 hours. | See also: Recent months at McCluer Island
Date/Time
CST
Temp
°C
App
Temp
°C
Dew
Point
°C
Rel
Hum
%
Delta-T
°C
Wind Press
QNH
hPa
Press
MSL
hPa
Rain since
9am
mm
Dir  Spd
km/h
Gust
km/h
Spd
kts
Gust
kts
25/08:00pm 29.2 32.1 26.6 86 1.9 WNW 24 28 13 15 1007.6 - 0.0
25/07:30pm 29.2 32.1 26.6 86 1.9 WNW 24 30 13 16 1007.3 - 0.0
25/07:00pm 29.3 31.9 26.7 86 1.9 WNW 26 32 14 17 1007.1 - 0.0
25/06:30pm 29.5 31.5 26.3 83 2.3 WNW 28 32 15 17 1007.1 - 0.0
25/06:00pm 29.6 31.5 26.2 82 2.4 WNW 28 32 15 17 1006.9 1006.9 0.0
25/05:30pm 29.8 32.1 26.2 81 2.6 NW 26 30 14 16 1006.7 - 0.0
25/05:00pm 30.2 33.0 26.4 80 2.7 NW 24 28 13 15 1006.7 - 0.0
25/04:30pm 30.8 32.3 26.7 79 2.9 WNW 32 35 17 19 1006.9 - 0.0
25/04:00pm 30.6 32.1 26.1 77 3.2 WNW 30 33 16 18 1006.9 - 0.0
25/03:30pm 31.3 34.0 26.8 77 3.2 WNW 26 30 14 16 1007.0 - 0.0
25/03:00pm 31.1 33.9 26.4 76 3.4 NW 24 30 13 16 1007.2 1007.2 0.0
25/02:30pm 30.9 33.2 26.2 76 3.4 NW 26 32 14 17 1007.5 - 0.0
25/02:00pm 31.2 33.3 26.5 76 3.4 WNW 28 32 15 17 1008.0 - 0.0
25/01:30pm 31.2 34.3 26.9 78 3.1 WNW 24 30 13 16 1008.4 - 0.0
25/01:00pm 30.9 33.3 26.4 77 3.2 NW 26 30 14 16 1008.5 - 0.0
25/12:30pm 30.9 33.7 26.4 77 3.2 NW 24 28 13 15 1008.8 - 0.0
25/12:00pm 31.5 35.2 27.2 78 3.1 WNW 22 26 12 14 1009.4 1009.4 0.0
25/11:30am 30.7 34.4 26.6 79 2.9 NW 20 26 11 14 1009.9 - 0.0
25/11:00am 30.5 34.4 26.9 81 2.6 NW 20 24 11 13 1010.3 - 0.0
25/10:30am 30.5 34.6 26.9 81 2.6 NW 19 20 10 11 1010.4 - 0.0
25/10:00am 30.3 33.9 26.5 80 2.7 WNW 20 24 11 13 1010.2 - 0.0
25/09:30am 30.1 34.1 26.7 82 2.4 WNW 19 22 10 12 1009.9 - 0.0
25/09:00am 29.6 33.3 26.6 84 2.1 NW 20 24 11 13 1009.5 1009.5 2.8
25/08:30am 29.3 32.4 26.3 84 2.1 NW 22 26 12 14 1009.4 - 2.8
25/08:00am 29.1 31.8 26.3 85 2.0 WNW 24 28 13 15 1009.2 - 2.8
25/07:30am 28.6 31.6 26.2 87 1.7 NW 22 28 12 15 1008.8 - 2.8
25/07:00am 28.6 32.2 26.4 88 1.6 NW 20 24 11 13 1008.5 - 2.8
25/06:30am 28.6 31.8 26.4 88 1.6 WNW 22 26 12 14 1008.4 - 2.8
25/06:00am 28.4 31.8 26.2 88 1.6 NW 20 24 11 13 1008.2 1008.2 2.8
25/05:30am 28.3 31.4 26.3 89 1.4 NW 22 26 12 14 1007.9 - 2.8
25/05:00am 28.4 31.7 26.6 90 1.3 WNW 22 28 12 15 1007.9 - 2.8
25/04:30am 28.3 32.0 26.3 89 1.4 WNW 19 20 10 11 1008.2 - 2.8
25/04:00am 28.4 32.3 26.6 90 1.3 WNW 19 20 10 11 1008.3 - 2.8
25/03:30am 28.3 31.7 25.9 87 1.7 WNW 19 20 10 11 1008.6 - 2.8
25/03:00am 28.1 31.3 25.5 86 1.8 WNW 19 24 10 13 1008.8 1008.8 2.8
25/02:30am 28.5 32.3 26.5 89 1.4 WNW 19 20 10 11 1009.1 - 2.8
25/02:00am 28.5 32.3 26.5 89 1.4 WNW 19 22 10 12 1009.1 - 2.8
25/01:30am 28.5 32.1 26.5 89 1.4 WNW 20 22 11 12 1009.6 - 2.8
25/01:00am 28.4 32.2 26.4 89 1.4 WNW 19 22 10 12 1010.1 - 2.8
25/12:30am 28.4 31.8 26.2 88 1.6 WNW 20 24 11 13 1010.2 - 2.8
25/12:00am 28.1 31.2 25.7 87 1.7 W 20 24 11 13 1010.3 1010.3 2.8
 
Date/Time
CST
Temp
°C
App
Temp
°C
Dew
Point
°C
Rel
Hum
%
Delta-T
°C
Wind Press
QNH
hPa
Press
MSL
hPa
Rain since
9am
mm
Dir  Spd
km/h
Gust
km/h
Spd
kts
Gust
kts
24/11:30pm 27.9 30.0 25.3 86 1.8 WNW 24 30 13 16 1010.6 - 2.8
24/11:00pm 27.8 30.2 25.2 86 1.8 W 22 28 12 15 1010.5 - 2.6
24/10:30pm 28.4 31.6 25.6 85 2.0 W 19 24 10 13 1010.3 - 1.8
24/10:00pm 28.4 30.7 25.6 85 2.0 W 24 28 13 15 1009.6 - 1.8
24/09:30pm 28.0 29.5 25.6 87 1.7 WNW 28 32 15 17 1009.4 - 1.8
24/09:00pm 27.9 29.0 24.9 84 2.1 W 28 52 15 28 1009.4 1009.4 1.4
24/08:30pm 28.6 31.6 25.6 84 2.1 W 20 24 11 13 1009.0 - 1.4
24/08:00pm 28.6 31.3 25.6 84 2.1 W 22 26 12 14 1008.6 - 1.4
24/07:30pm 28.0 29.3 25.2 85 2.0 W 28 32 15 17 1008.1 - 1.4
24/07:00pm 27.5 27.7 24.7 85 1.9 W 32 43 17 23 1007.7 - 1.0
24/06:30pm 29.2 30.6 26.0 83 2.3 WNW 30 35 16 19 1007.4 - 0.2
24/06:00pm 29.2 30.2 26.0 83 2.3 WNW 32 39 17 21 1007.1 1007.1 0.2
24/05:30pm 29.4 30.3 25.8 81 2.6 WNW 32 35 17 19 1006.9 - 0.2
24/05:00pm 29.5 31.1 26.3 83 2.3 WNW 30 35 16 19 1007.0 - 0.2
24/04:30pm 29.6 31.0 26.0 81 2.6 WNW 30 35 16 19 1006.8 - 0.2
24/04:00pm 29.4 31.4 26.4 84 2.1 WNW 28 33 15 18 1006.8 - 0.2
24/03:30pm 28.6 29.5 25.8 85 2.0 NW 32 39 17 21 1007.0 - 0.2
24/03:00pm 28.6 29.9 26.4 88 1.6 NW 32 37 17 20 1007.4 1007.4 0.2
24/02:30pm 28.5 29.6 25.5 84 2.1 NW 30 44 16 24 1007.8 - 0.2
24/02:00pm 28.1 29.4 25.9 88 1.6 WNW 30 41 16 22 1008.1 - 0.2
24/01:30pm 30.3 32.2 26.7 81 2.6 NW 30 35 16 19 1008.4 - 0.2
24/01:00pm 30.2 32.1 26.8 82 2.4 NW 30 33 16 18 1008.9 - 0.2
24/12:30pm 30.0 31.8 26.6 82 2.4 NW 30 35 16 19 1009.2 - 0.2
24/12:00pm 29.8 32.0 26.6 83 2.3 NW 28 33 15 18 1009.6 1009.6 0.2
24/11:30am 29.8 31.6 26.6 83 2.3 WNW 30 33 16 18 1009.9 - 0.2
24/11:00am 29.5 31.2 26.5 84 2.1 NW 30 35 16 19 1009.8 - 0.2
24/10:30am 29.5 31.2 26.5 84 2.1 NW 30 35 16 19 1009.8 - 0.2
24/10:00am 28.9 29.9 25.9 84 2.1 WNW 32 35 17 19 1009.7 - 0.2
24/09:30am 28.2 30.5 26.2 89 1.4 WNW 26 30 14 16 1009.4 - 0.2
24/09:00am 27.9 29.1 25.7 88 1.6 WNW 30 35 16 19 1009.3 1009.3 73.8
24/08:30am 26.9 27.4 25.5 92 1.0 WNW 33 48 18 26 1009.0 - 73.6
24/08:28am 26.8 26.5 25.4 92 1.0 WNW 37 56 20 30 1009.0 - 73.6
24/08:17am 27.8 26.7 26.0 90 1.3 NW 43 50 23 27 1008.9 - 66.2
24/08:00am 27.8 32.4 26.0 90 1.3 WSW 13 17 7 9 1009.0 - 64.8
24/07:30am 27.9 31.3 26.1 90 1.3 W 20 26 11 14 1008.6 - 64.4
24/07:00am 27.8 30.4 26.6 93 0.9 NNW 26 32 14 17 1008.4 - 64.0
24/06:47am 28.5 29.7 26.5 89 1.4 NW 33 37 18 20 1008.1 - 63.8
24/06:30am 27.1 31.7 25.9 93 0.8 NW 13 15 7 8 1007.9 - 63.6
24/06:00am 26.1 28.5 25.2 95 0.6 WNW 22 30 12 16 1007.6 1007.6 57.2
24/05:30am 25.6 26.6 24.7 95 0.6 SSW 28 37 15 20 1007.9 - 47.6
24/05:00am 26.1 25.8 24.9 93 0.8 WSW 35 46 19 25 1007.3 - 24.4
24/04:30am 28.2 30.4 26.6 91 1.1 NW 28 33 15 18 1006.7 - 23.2
24/04:00am 28.0 31.0 26.2 90 1.3 NW 22 26 12 14 1006.9 - 23.2
24/03:30am 27.4 28.0 25.4 89 1.4 WNW 32 43 17 23 1007.1 - 23.2
24/03:21am 27.5 28.5 24.7 85 1.9 NW 28 52 15 28 1007.2 - 21.0
24/03:00am 27.6 29.1 25.6 89 1.4 NW 28 41 15 22 1007.1 1007.1 19.8
24/02:30am 28.1 31.9 26.5 91 1.1 WNW 19 22 10 12 1007.5 - 17.6
24/02:00am 27.7 30.4 26.3 92 1.0 W 24 32 13 17 1008.0 - 17.4
24/01:31am 27.8 28.6 24.4 82 2.4 WNW 28 48 15 26 1008.5 - 16.4
24/01:30am 28.5 30.3 25.5 84 2.1 WNW 26 44 14 24 1008.5 - 16.4
24/01:00am 28.8 31.1 26.2 86 1.8 WNW 26 30 14 16 1008.8 - 16.4
24/12:30am 28.9 30.7 26.1 85 2.0 WNW 28 32 15 17 1009.2 - 16.4
24/12:00am 28.9 31.3 26.3 86 1.9 WNW 26 30 14 16 1009.2 1009.2 16.4
 
Date/Time
CST
Temp
°C
App
Temp
°C
Dew
Point
°C
Rel
Hum
%
Delta-T
°C
Wind Press
QNH
hPa
Press
MSL
hPa
Rain since
9am
mm
Dir  Spd
km/h
Gust
km/h
Spd
kts
Gust
kts
23/11:30pm 28.8 29.7 25.8 84 2.1 WNW 32 39 17 21 1009.3 - 16.4
23/11:00pm 29.0 30.4 26.0 84 2.1 WNW 30 33 16 18 1009.3 - 16.4
23/10:30pm 28.9 30.9 26.3 86 1.9 WNW 28 33 15 18 1008.8 - 16.4
23/10:00pm 29.0 29.6 25.6 82 2.4 WNW 33 41 18 22 1008.4 - 16.4
23/09:30pm 28.9 31.1 26.7 88 1.6 WNW 28 33 15 18 1007.9 - 16.4
23/09:00pm 28.8 30.3 26.2 86 1.9 WNW 30 33 16 18 1007.5 1007.5 16.4
23/08:30pm 28.6 30.1 26.2 87 1.7 WNW 30 35 16 19 1007.2 - 16.4
23/08:00pm 27.6 31.2 26.4 93 0.9 W 20 32 11 17 1006.7 - 16.4
23/07:30pm 27.5 28.7 25.1 87 1.7 WNW 28 48 15 26 1006.6 - 7.6
23/07:29pm 27.9 29.4 25.5 87 1.7 WNW 28 48 15 26 1006.5 - 6.6
23/07:00pm 28.0 29.8 26.0 89 1.4 W 28 32 15 17 1006.1 - 5.8
23/06:30pm 27.6 28.9 25.8 90 1.3 W 30 33 16 18 1006.0 - 5.8
23/06:00pm 27.9 29.1 25.1 85 2.0 W 28 39 15 21 1005.7 1005.7 0.4
23/05:30pm 29.2 30.3 26.2 84 2.1 WNW 32 35 17 19 1005.7 - 0.2
23/05:00pm 29.3 30.3 26.3 84 2.1 WNW 33 37 18 20 1005.6 - 0.2
23/04:30pm 29.6 30.7 26.2 82 2.4 WNW 32 39 17 21 1006.0 - 0.2
23/04:00pm 29.3 30.9 26.3 84 2.1 NW 30 39 16 21 1006.0 - 0.2
23/03:30pm 28.8 29.9 26.2 86 1.8 NW 32 37 17 20 1006.1 - 0.2
23/03:00pm 28.0 27.2 25.2 85 2.0 NW 39 50 21 27 1006.6 1006.6 0.2
23/02:30pm 29.4 31.1 26.4 84 2.1 NW 30 35 16 19 1006.9 - 0.2
23/02:00pm 28.4 29.7 25.8 86 1.8 NW 30 37 16 20 1007.4 - 0.2
23/01:30pm 27.7 26.8 25.1 86 1.8 NW 39 50 21 27 1007.5 - 0.2
23/01:00pm 28.7 28.8 26.1 86 1.8 NW 37 41 20 22 1008.1 - 0.0
23/12:30pm 28.9 30.0 26.1 85 2.0 NW 32 37 17 20 1008.5 - 0.0
23/12:00pm 30.0 30.8 26.6 82 2.4 NW 35 43 19 23 1008.7 1008.7 0.0
23/11:30am 30.1 31.4 26.5 81 2.6 WNW 32 37 17 20 1008.8 - 0.0
23/11:00am 29.9 30.6 26.9 84 2.2 NW 37 46 20 25 1009.0 - 0.0
23/10:30am 29.4 30.4 26.2 83 2.3 WNW 33 39 18 21 1009.5 - 0.0
23/10:00am 29.5 29.9 25.9 81 2.6 WNW 35 39 19 21 1009.4 - 0.0
23/09:30am 30.0 30.6 25.7 78 3.0 WNW 33 39 18 21 1009.0 - 0.0
23/09:00am 29.7 31.5 26.1 81 2.6 WNW 28 33 15 18 1008.8 1008.8 10.0
23/08:30am 29.4 31.6 26.0 82 2.4 NW 26 32 14 17 1009.4 - 10.0
23/08:00am 29.1 30.3 25.7 82 2.4 NW 30 33 16 18 1009.0 - 10.0
23/07:30am 29.0 29.9 25.8 83 2.3 WNW 32 39 17 21 1008.9 - 10.0
23/07:00am 28.8 29.8 26.2 86 1.8 NW 33 39 18 21 1008.4 - 10.0
23/06:30am 28.5 30.1 26.3 88 1.6 NW 30 33 16 18 1008.1 - 10.0
23/06:00am 28.1 28.9 25.9 88 1.6 NW 33 39 18 21 1007.8 1007.8 10.0
23/05:30am 28.6 29.0 25.4 83 2.3 NW 33 43 18 23 1007.4 - 10.0
23/05:00am 28.7 28.8 25.5 83 2.3 WNW 35 41 19 22 1007.1 - 10.0
23/04:30am 28.7 28.6 25.7 84 2.1 NW 37 43 20 23 1007.3 - 10.0
23/04:00am 28.9 28.6 25.5 82 2.4 WNW 37 44 20 24 1007.4 - 10.0
23/03:30am 28.9 28.6 25.5 82 2.4 WNW 37 43 20 23 1007.1 - 10.0
23/03:00am 28.6 28.7 25.4 83 2.3 WNW 35 43 19 23 1007.4 1007.4 10.0
23/02:30am 28.5 28.2 25.5 84 2.1 NW 37 43 20 23 1007.5 - 10.0
23/02:00am 28.7 29.3 25.7 84 2.1 NW 33 39 18 21 1008.0 - 10.0
23/01:30am 28.6 30.1 25.6 84 2.1 WNW 28 32 15 17 1008.2 - 10.0
23/01:00am 28.7 29.5 25.7 84 2.1 WNW 32 39 17 21 1008.9 - 10.0
23/12:30am 28.7 29.2 25.5 83 2.3 WNW 33 41 18 22 1009.6 - 10.0
23/12:00am 28.8 29.4 25.4 82 2.4 WNW 32 35 17 19 1010.1 - 10.0
 
Date/Time
CST
Temp
°C
App
Temp
°C
Dew
Point
°C
Rel
Hum
%
Delta-T
°C
Wind Press
QNH
hPa
Press
MSL
hPa
Rain since
9am
mm
Dir  Spd
km/h
Gust
km/h
Spd
kts
Gust
kts
22/11:30pm 28.6 29.6 25.4 83 2.3 W 30 35 16 19 1010.0 - 10.0
22/11:00pm 28.5 29.4 25.3 83 2.2 WNW 30 35 16 19 1009.6 - 10.0
22/10:30pm 28.3 28.5 25.1 83 2.2 WNW 33 37 18 20 1009.8 - 10.0
22/10:00pm 28.4 28.3 25.2 83 2.2 WNW 35 43 19 23 1009.8 - 10.0
22/09:30pm 28.0 28.1 24.6 82 2.4 WNW 32 35 17 19 1009.6 - 10.0
22/09:00pm 27.8 27.7 24.6 83 2.2 WNW 33 39 18 21 1009.0 1009.0 10.0
22/08:30pm 27.9 28.3 25.3 86 1.8 WNW 33 41 18 22 1008.8 - 10.0

Other formats

Comma delimited format used in spreadsheet applications
http://www.bom.gov.au/fwo/IDD60801/IDD60801.94135.axf

JavaScript Object Notation format (JSON) in row-major order
http://www.bom.gov.au/fwo/IDD60801/IDD60801.94135.json

Data quality

Most of these data are generated automatically and are frequently updated. Quality checks on data are not normally performed. It is possible for incorrect values to appear. Refer to information at About Latest Weather Observations and please check the disclaimer before using these data.